sensor_id;sensor_type;location;lat;lon;timestamp;P1;durP1;ratioP1;P2;durP2;ratioP2
16928;SDS011;8581;47.334;11.190;2024-01-10T00:00:22;2.40;;;2.10;;
16928;SDS011;8581;47.334;11.190;2024-01-10T00:02:53;3.60;;;2.13;;
16928;SDS011;8581;47.334;11.190;2024-01-10T00:05:25;2.63;;;2.37;;
16928;SDS011;8581;47.334;11.190;2024-01-10T00:07:57;3.23;;;2.73;;
16928;SDS011;8581;47.334;11.190;2024-01-10T00:10:28;4.23;;;2.50;;
16928;SDS011;8581;47.334;11.190;2024-01-10T00:20:30;5.13;;;3.20;;
16928;SDS011;8581;47.334;11.190;2024-01-10T00:40:39;4.10;;;2.00;;
16928;SDS011;8581;47.334;11.190;2024-01-10T00:50:41;2.40;;;2.00;;
16928;SDS011;8581;47.334;11.190;2024-01-10T01:00:42;3.07;;;1.73;;
16928;SDS011;8581;47.334;11.190;2024-01-10T01:10:44;1.77;;;1.67;;
16928;SDS011;8581;47.334;11.190;2024-01-10T01:20:46;2.93;;;2.00;;
16928;SDS011;8581;47.334;11.190;2024-01-10T01:30:47;2.40;;;1.83;;
16928;SDS011;8581;47.334;11.190;2024-01-10T01:40:49;1.50;;;1.40;;
16928;SDS011;8581;47.334;11.190;2024-01-10T01:50:51;1.60;;;1.50;;
16928;SDS011;8581;47.334;11.190;2024-01-10T02:00:52;2.07;;;1.80;;
16928;SDS011;8581;47.334;11.190;2024-01-10T02:10:54;3.03;;;1.93;;
16928;SDS011;8581;47.334;11.190;2024-01-10T02:20:55;2.10;;;1.87;;
16928;SDS011;8581;47.334;11.190;2024-01-10T02:30:57;2.03;;;1.80;;
16928;SDS011;8581;47.334;11.190;2024-01-10T02:40:59;1.77;;;1.67;;
16928;SDS011;8581;47.334;11.190;2024-01-10T02:51:01;3.03;;;2.17;;
16928;SDS011;8581;47.334;11.190;2024-01-10T03:01:02;2.67;;;1.83;;
16928;SDS011;8581;47.334;11.190;2024-01-10T03:11:04;2.50;;;2.07;;
16928;SDS011;8581;47.334;11.190;2024-01-10T03:21:06;2.40;;;2.17;;
16928;SDS011;8581;47.334;11.190;2024-01-10T03:31:07;2.13;;;1.90;;
16928;SDS011;8581;47.334;11.190;2024-01-10T03:41:13;2.87;;;2.27;;
16928;SDS011;8581;47.334;11.190;2024-01-10T03:51:15;2.07;;;1.87;;
16928;SDS011;8581;47.334;11.190;2024-01-10T04:01:16;1.63;;;1.53;;
16928;SDS011;8581;47.334;11.190;2024-01-10T04:11:18;1.87;;;1.73;;
16928;SDS011;8581;47.334;11.190;2024-01-10T04:21:20;2.00;;;1.80;;
16928;SDS011;8581;47.334;11.190;2024-01-10T04:31:21;1.70;;;1.60;;
16928;SDS011;8581;47.334;11.190;2024-01-10T04:41:23;2.47;;;2.27;;
16928;SDS011;8581;47.334;11.190;2024-01-10T04:51:25;2.17;;;1.90;;
16928;SDS011;8581;47.334;11.190;2024-01-10T05:01:26;4.70;;;1.90;;
16928;SDS011;8581;47.334;11.190;2024-01-10T05:11:28;1.80;;;1.43;;
16928;SDS011;8581;47.334;11.190;2024-01-10T05:21:31;2.47;;;1.90;;
16928;SDS011;8581;47.334;11.190;2024-01-10T05:31:32;1.93;;;1.70;;
16928;SDS011;8581;47.334;11.190;2024-01-10T05:41:34;2.57;;;1.97;;
16928;SDS011;8581;47.334;11.190;2024-01-10T05:51:35;3.03;;;2.40;;
16928;SDS011;8581;47.334;11.190;2024-01-10T06:01:37;2.77;;;2.40;;
16928;SDS011;8581;47.334;11.190;2024-01-10T06:11:41;1.93;;;1.70;;
16928;SDS011;8581;47.334;11.190;2024-01-10T06:21:43;1.60;;;1.50;;
16928;SDS011;8581;47.334;11.190;2024-01-10T06:31:44;2.53;;;2.30;;
16928;SDS011;8581;47.334;11.190;2024-01-10T06:41:47;3.03;;;2.70;;
16928;SDS011;8581;47.334;11.190;2024-01-10T06:51:48;3.07;;;2.73;;
16928;SDS011;8581;47.334;11.190;2024-01-10T07:01:52;8.23;;;6.00;;
16928;SDS011;8581;47.334;11.190;2024-01-10T07:11:54;8.07;;;5.93;;
16928;SDS011;8581;47.334;11.190;2024-01-10T07:21:55;8.63;;;6.90;;
16928;SDS011;8581;47.334;11.190;2024-01-10T07:31:57;10.30;;;8.40;;
16928;SDS011;8581;47.334;11.190;2024-01-10T07:41:59;5.23;;;4.70;;
16928;SDS011;8581;47.334;11.190;2024-01-10T07:52:01;8.67;;;6.00;;
16928;SDS011;8581;47.334;11.190;2024-01-10T08:02:02;6.17;;;5.17;;
16928;SDS011;8581;47.334;11.190;2024-01-10T08:12:04;4.97;;;3.93;;
16928;SDS011;8581;47.334;11.190;2024-01-10T08:22:06;4.63;;;3.93;;
16928;SDS011;8581;47.334;11.190;2024-01-10T08:32:08;6.23;;;5.63;;
16928;SDS011;8581;47.334;11.190;2024-01-10T08:42:10;6.73;;;5.70;;
16928;SDS011;8581;47.334;11.190;2024-01-10T08:52:12;11.27;;;9.27;;
16928;SDS011;8581;47.334;11.190;2024-01-10T09:02:13;8.00;;;7.10;;
16928;SDS011;8581;47.334;11.190;2024-01-10T09:12:15;9.47;;;7.37;;
16928;SDS011;8581;47.334;11.190;2024-01-10T09:22:17;7.40;;;6.63;;
16928;SDS011;8581;47.334;11.190;2024-01-10T09:32:18;5.83;;;5.23;;
16928;SDS011;8581;47.334;11.190;2024-01-10T09:42:20;6.40;;;5.63;;
16928;SDS011;8581;47.334;11.190;2024-01-10T09:52:24;7.60;;;6.80;;
16928;SDS011;8581;47.334;11.190;2024-01-10T10:02:25;4.70;;;4.13;;
16928;SDS011;8581;47.334;11.190;2024-01-10T10:12:45;6.83;;;4.40;;
16928;SDS011;8581;47.334;11.190;2024-01-10T10:22:59;4.67;;;4.27;;
16928;SDS011;8581;47.334;11.190;2024-01-10T10:33:01;3.70;;;3.40;;
16928;SDS011;8581;47.334;11.190;2024-01-10T10:43:03;2.07;;;1.87;;
16928;SDS011;8581;47.334;11.190;2024-01-10T10:53:05;2.53;;;1.70;;
16928;SDS011;8581;47.334;11.190;2024-01-10T11:03:07;1.10;;;1.00;;
16928;SDS011;8581;47.334;11.190;2024-01-10T11:23:33;5.07;;;3.57;;
16928;SDS011;8581;47.334;11.190;2024-01-10T11:33:47;1.50;;;1.40;;
16928;SDS011;8581;47.334;11.190;2024-01-10T11:54:02;1.30;;;1.20;;
16928;SDS011;8581;47.334;11.190;2024-01-10T12:04:04;1.97;;;1.67;;
16928;SDS011;8581;47.334;11.190;2024-01-10T12:14:06;2.73;;;1.43;;
16928;SDS011;8581;47.334;11.190;2024-01-10T12:24:07;1.10;;;1.00;;
16928;SDS011;8581;47.334;11.190;2024-01-10T12:34:09;1.13;;;1.03;;
16928;SDS011;8581;47.334;11.190;2024-01-10T12:44:11;2.20;;;1.80;;
16928;SDS011;8581;47.334;11.190;2024-01-10T12:54:12;1.70;;;1.35;;
16928;SDS011;8581;47.334;11.190;2024-01-10T13:04:14;1.60;;;1.50;;
16928;SDS011;8581;47.334;11.190;2024-01-10T13:14:16;1.40;;;1.30;;
16928;SDS011;8581;47.334;11.190;2024-01-10T13:24:17;1.50;;;1.40;;
16928;SDS011;8581;47.334;11.190;2024-01-10T13:34:19;2.15;;;1.70;;
16928;SDS011;8581;47.334;11.190;2024-01-10T13:44:21;1.62;;;1.52;;
16928;SDS011;8581;47.334;11.190;2024-01-10T13:54:22;1.42;;;1.32;;
16928;SDS011;8581;47.334;11.190;2024-01-10T14:04:24;2.33;;;2.12;;
16928;SDS011;8581;47.334;11.190;2024-01-10T14:14:25;1.30;;;1.20;;
16928;SDS011;8581;47.334;11.190;2024-01-10T14:24:27;1.43;;;1.33;;
16928;SDS011;8581;47.334;11.190;2024-01-10T14:34:29;1.20;;;1.10;;
16928;SDS011;8581;47.334;11.190;2024-01-10T14:44:30;1.60;;;1.50;;
16928;SDS011;8581;47.334;11.190;2024-01-10T14:54:32;2.23;;;2.00;;
16928;SDS011;8581;47.334;11.190;2024-01-10T15:04:38;2.17;;;2.07;;
16928;SDS011;8581;47.334;11.190;2024-01-10T15:14:39;1.87;;;1.70;;
16928;SDS011;8581;47.334;11.190;2024-01-10T15:24:41;1.60;;;1.50;;
16928;SDS011;8581;47.334;11.190;2024-01-10T15:34:42;2.30;;;2.10;;
16928;SDS011;8581;47.334;11.190;2024-01-10T15:44:44;2.87;;;2.57;;
16928;SDS011;8581;47.334;11.190;2024-01-10T15:54:46;4.03;;;3.30;;
16928;SDS011;8581;47.334;11.190;2024-01-10T16:04:47;3.97;;;3.03;;
16928;SDS011;8581;47.334;11.190;2024-01-10T16:14:49;5.47;;;3.37;;
16928;SDS011;8581;47.334;11.190;2024-01-10T16:24:50;3.23;;;2.80;;
16928;SDS011;8581;47.334;11.190;2024-01-10T16:34:52;3.10;;;2.80;;
16928;SDS011;8581;47.334;11.190;2024-01-10T16:44:54;3.40;;;2.37;;
16928;SDS011;8581;47.334;11.190;2024-01-10T16:54:55;5.30;;;4.23;;
16928;SDS011;8581;47.334;11.190;2024-01-10T17:04:57;4.87;;;4.10;;
16928;SDS011;8581;47.334;11.190;2024-01-10T17:14:59;6.03;;;5.07;;
16928;SDS011;8581;47.334;11.190;2024-01-10T17:25:00;10.53;;;7.40;;
16928;SDS011;8581;47.334;11.190;2024-01-10T17:35:02;6.47;;;5.27;;
16928;SDS011;8581;47.334;11.190;2024-01-10T17:45:05;10.07;;;7.20;;
16928;SDS011;8581;47.334;11.190;2024-01-10T17:55:08;4.50;;;4.03;;
16928;SDS011;8581;47.334;11.190;2024-01-10T18:05:10;6.57;;;5.10;;
16928;SDS011;8581;47.334;11.190;2024-01-10T18:15:18;14.30;;;9.27;;
16928;SDS011;8581;47.334;11.190;2024-01-10T18:25:19;11.33;;;8.57;;
16928;SDS011;8581;47.334;11.190;2024-01-10T18:35:21;4.23;;;3.80;;
16928;SDS011;8581;47.334;11.190;2024-01-10T18:45:23;3.47;;;3.13;;
16928;SDS011;8581;47.334;11.190;2024-01-10T18:55:24;7.07;;;4.43;;
16928;SDS011;8581;47.334;11.190;2024-01-10T19:05:26;6.97;;;4.50;;
16928;SDS011;8581;47.334;11.190;2024-01-10T19:15:27;13.87;;;9.17;;
16928;SDS011;8581;47.334;11.190;2024-01-10T19:25:29;16.60;;;10.47;;
16928;SDS011;8581;47.334;11.190;2024-01-10T19:35:31;12.40;;;8.87;;
16928;SDS011;8581;47.334;11.190;2024-01-10T19:45:34;5.37;;;4.30;;
16928;SDS011;8581;47.334;11.190;2024-01-10T19:55:38;4.73;;;4.00;;
16928;SDS011;8581;47.334;11.190;2024-01-10T20:05:41;6.83;;;5.80;;
16928;SDS011;8581;47.334;11.190;2024-01-10T20:15:44;6.10;;;5.20;;
16928;SDS011;8581;47.334;11.190;2024-01-10T20:25:46;12.77;;;7.70;;
16928;SDS011;8581;47.334;11.190;2024-01-10T20:35:47;8.53;;;5.60;;
16928;SDS011;8581;47.334;11.190;2024-01-10T20:45:49;10.23;;;5.70;;
16928;SDS011;8581;47.334;11.190;2024-01-10T20:55:50;7.57;;;4.57;;
16928;SDS011;8581;47.334;11.190;2024-01-10T21:05:52;6.10;;;4.23;;
16928;SDS011;8581;47.334;11.190;2024-01-10T21:15:54;6.77;;;4.17;;
16928;SDS011;8581;47.334;11.190;2024-01-10T21:25:56;4.17;;;2.77;;
16928;SDS011;8581;47.334;11.190;2024-01-10T21:35:58;17.03;;;9.53;;
16928;SDS011;8581;47.334;11.190;2024-01-10T21:46:00;11.53;;;6.73;;
16928;SDS011;8581;47.334;11.190;2024-01-10T21:56:02;7.50;;;4.50;;
16928;SDS011;8581;47.334;11.190;2024-01-10T22:06:04;21.63;;;11.10;;
16928;SDS011;8581;47.334;11.190;2024-01-10T22:16:06;15.30;;;9.17;;
16928;SDS011;8581;47.334;11.190;2024-01-10T22:26:08;15.10;;;7.83;;
16928;SDS011;8581;47.334;11.190;2024-01-10T22:36:09;16.70;;;10.03;;
16928;SDS011;8581;47.334;11.190;2024-01-10T22:46:11;11.27;;;6.87;;
16928;SDS011;8581;47.334;11.190;2024-01-10T22:56:13;11.23;;;6.63;;
16928;SDS011;8581;47.334;11.190;2024-01-10T23:06:14;11.43;;;10.00;;
16928;SDS011;8581;47.334;11.190;2024-01-10T23:16:16;8.03;;;5.80;;
16928;SDS011;8581;47.334;11.190;2024-01-10T23:26:18;7.20;;;4.77;;
16928;SDS011;8581;47.334;11.190;2024-01-10T23:36:19;5.73;;;4.10;;
16928;SDS011;8581;47.334;11.190;2024-01-10T23:46:21;4.70;;;3.80;;
16928;SDS011;8581;47.334;11.190;2024-01-10T23:56:23;6.03;;;3.87;;
